sensor_id;sensor_type;location;lat;lon;timestamp;temperature;humidity
57030;DHT22;42920;45.306;20.448;2022-12-13T00:00:47;76.90;2227.20
57030;DHT22;42920;45.306;20.448;2022-12-13T00:03:12;76.90;2227.20
57030;DHT22;42920;45.306;20.448;2022-12-13T00:05:42;76.90;2227.20
57030;DHT22;42920;45.306;20.448;2022-12-13T00:08:08;76.80;2227.20
57030;DHT22;42920;45.306;20.448;2022-12-13T00:10:33;52.10;2227.20
57030;DHT22;42920;45.306;20.448;2022-12-13T00:12:59;52.10;2227.20
57030;DHT22;42920;45.306;20.448;2022-12-13T00:15:24;52.00;2227.20
57030;DHT22;42920;45.306;20.448;2022-12-13T00:17:50;52.10;2227.20
57030;DHT22;42920;45.306;20.448;2022-12-13T00:20:16;52.00;2227.20
57030;DHT22;42920;45.306;20.448;2022-12-13T00:22:41;52.00;2227.20
57030;DHT22;42920;45.306;20.448;2022-12-13T00:25:07;52.00;2227.20
57030;DHT22;42920;45.306;20.448;2022-12-13T00:27:33;52.10;2227.20
57030;DHT22;42920;45.306;20.448;2022-12-13T00:29:58;76.80;2227.20
57030;DHT22;42920;45.306;20.448;2022-12-13T00:32:24;76.80;2227.20
57030;DHT22;42920;45.306;20.448;2022-12-13T00:34:50;76.80;2227.20
57030;DHT22;42920;45.306;20.448;2022-12-13T00:37:15;76.90;2227.20
57030;DHT22;42920;45.306;20.448;2022-12-13T00:39:41;76.80;2227.20
57030;DHT22;42920;45.306;20.448;2022-12-13T00:42:07;76.80;2227.20
57030;DHT22;42920;45.306;20.448;2022-12-13T00:44:32;52.10;2227.20
57030;DHT22;42920;45.306;20.448;2022-12-13T00:46:58;52.10;2227.20
57030;DHT22;42920;45.306;20.448;2022-12-13T00:49:24;52.00;2227.20
57030;DHT22;42920;45.306;20.448;2022-12-13T00:51:49;52.10;2227.20
57030;DHT22;42920;45.306;20.448;2022-12-13T00:54:15;52.00;2227.20
57030;DHT22;42920;45.306;20.448;2022-12-13T00:56:41;52.10;2227.20
57030;DHT22;42920;45.306;20.448;2022-12-13T00:59:06;52.10;2227.20
57030;DHT22;42920;45.306;20.448;2022-12-13T01:01:34;52.10;2227.20
57030;DHT22;42920;45.306;20.448;2022-12-13T01:04:02;76.80;2227.20
57030;DHT22;42920;45.306;20.448;2022-12-13T01:06:35;76.80;2227.20
57030;DHT22;42920;45.306;20.448;2022-12-13T01:09:01;76.80;2227.20
57030;DHT22;42920;45.306;20.448;2022-12-13T01:11:27;77.00;2227.20
57030;DHT22;42920;45.306;20.448;2022-12-13T01:13:53;76.90;2227.20
57030;DHT22;42920;45.306;20.448;2022-12-13T01:16:19;76.90;2227.20
57030;DHT22;42920;45.306;20.448;2022-12-13T01:18:44;76.90;2227.20
57030;DHT22;42920;45.306;20.448;2022-12-13T01:21:11;76.90;2227.20
57030;DHT22;42920;45.306;20.448;2022-12-13T01:23:37;76.90;2227.20
57030;DHT22;42920;45.306;20.448;2022-12-13T01:26:05;76.90;2227.20
57030;DHT22;42920;45.306;20.448;2022-12-13T01:28:31;76.90;2227.20
57030;DHT22;42920;45.306;20.448;2022-12-13T01:31:04;76.90;2227.20
57030;DHT22;42920;45.306;20.448;2022-12-13T01:33:31;77.00;2227.20
57030;DHT22;42920;45.306;20.448;2022-12-13T01:36:02;76.90;2227.20
57030;DHT22;42920;45.306;20.448;2022-12-13T01:38:28;76.90;2227.20
57030;DHT22;42920;45.306;20.448;2022-12-13T01:40:54;76.80;2227.20
57030;DHT22;42920;45.306;20.448;2022-12-13T01:43:24;52.10;2227.20
57030;DHT22;42920;45.306;20.448;2022-12-13T01:45:50;52.10;2227.20
57030;DHT22;42920;45.306;20.448;2022-12-13T01:48:18;76.90;2227.20
57030;DHT22;42920;45.306;20.448;2022-12-13T01:50:48;51.90;2227.20
57030;DHT22;42920;45.306;20.448;2022-12-13T01:53:21;52.00;2227.20
57030;DHT22;42920;45.306;20.448;2022-12-13T01:55:53;52.10;2227.20
57030;DHT22;42920;45.306;20.448;2022-12-13T01:58:19;52.00;2227.20
57030;DHT22;42920;45.306;20.448;2022-12-13T02:00:46;52.00;2227.20
57030;DHT22;42920;45.306;20.448;2022-12-13T02:03:13;52.00;2227.20
57030;DHT22;42920;45.306;20.448;2022-12-13T02:06:25;51.80;2227.20
57030;DHT22;42920;45.306;20.448;2022-12-13T02:08:30;51.70;2227.20
57030;DHT22;42920;45.306;20.448;2022-12-13T02:10:58;51.60;2227.20
57030;DHT22;42920;45.306;20.448;2022-12-13T02:13:24;51.50;2227.20
57030;DHT22;42920;45.306;20.448;2022-12-13T02:21:18;51.70;2227.20
57030;DHT22;42920;45.306;20.448;2022-12-13T02:24:47;51.70;2227.20
57030;DHT22;42920;45.306;20.448;2022-12-13T02:33:12;51.90;2227.20
57030;DHT22;42920;45.306;20.448;2022-12-13T02:41:16;51.90;2227.20
57030;DHT22;42920;45.306;20.448;2022-12-13T02:43:53;51.80;2227.20
57030;DHT22;42920;45.306;20.448;2022-12-13T02:46:21;51.90;2227.20
57030;DHT22;42920;45.306;20.448;2022-12-13T02:48:52;51.90;2227.20
57030;DHT22;42920;45.306;20.448;2022-12-13T02:51:19;51.90;2227.20
57030;DHT22;42920;45.306;20.448;2022-12-13T02:53:46;52.00;2227.20
57030;DHT22;42920;45.306;20.448;2022-12-13T02:56:12;52.00;2227.20
57030;DHT22;42920;45.306;20.448;2022-12-13T02:58:42;52.00;2227.20
57030;DHT22;42920;45.306;20.448;2022-12-13T03:06:42;52.00;2227.20
57030;DHT22;42920;45.306;20.448;2022-12-13T03:09:29;52.00;2227.20
57030;DHT22;42920;45.306;20.448;2022-12-13T03:17:55;52.00;2227.20
57030;DHT22;42920;45.306;20.448;2022-12-13T03:20:25;51.90;2227.20
57030;DHT22;42920;45.306;20.448;2022-12-13T03:22:52;52.00;2227.20
57030;DHT22;42920;45.306;20.448;2022-12-13T03:25:19;52.00;2227.20
57030;DHT22;42920;45.306;20.448;2022-12-13T03:27:45;51.90;2227.20
57030;DHT22;42920;45.306;20.448;2022-12-13T03:30:11;52.00;2227.20
57030;DHT22;42920;45.306;20.448;2022-12-13T03:32:37;52.00;2227.20
57030;DHT22;42920;45.306;20.448;2022-12-13T03:35:03;51.90;2227.20
57030;DHT22;42920;45.306;20.448;2022-12-13T03:37:29;51.90;2227.20
57030;DHT22;42920;45.306;20.448;2022-12-13T03:39:54;51.90;2227.20
57030;DHT22;42920;45.306;20.448;2022-12-13T03:42:21;51.90;2227.20
57030;DHT22;42920;45.306;20.448;2022-12-13T03:44:47;51.80;2227.20
57030;DHT22;42920;45.306;20.448;2022-12-13T03:47:13;51.80;2227.20
57030;DHT22;42920;45.306;20.448;2022-12-13T03:49:38;51.80;2227.20
57030;DHT22;42920;45.306;20.448;2022-12-13T03:52:04;51.80;2227.20
57030;DHT22;42920;45.306;20.448;2022-12-13T03:54:30;51.80;2227.20
57030;DHT22;42920;45.306;20.448;2022-12-13T03:56:55;51.80;2227.20
57030;DHT22;42920;45.306;20.448;2022-12-13T03:59:22;51.80;2227.20
57030;DHT22;42920;45.306;20.448;2022-12-13T04:01:47;51.80;2227.20
57030;DHT22;42920;45.306;20.448;2022-12-13T04:04:13;51.80;2227.20
57030;DHT22;42920;45.306;20.448;2022-12-13T04:06:39;51.80;2227.20
57030;DHT22;42920;45.306;20.448;2022-12-13T04:09:04;51.80;2227.20
57030;DHT22;42920;45.306;20.448;2022-12-13T04:11:30;51.80;2227.20
57030;DHT22;42920;45.306;20.448;2022-12-13T04:14:14;51.80;2227.20
57030;DHT22;42920;45.306;20.448;2022-12-13T04:16:39;51.70;2227.20
57030;DHT22;42920;45.306;20.448;2022-12-13T04:19:05;51.80;2227.20
57030;DHT22;42920;45.306;20.448;2022-12-13T04:21:31;51.70;2227.20
57030;DHT22;42920;45.306;20.448;2022-12-13T04:23:57;51.70;2227.20
57030;DHT22;42920;45.306;20.448;2022-12-13T04:26:23;51.70;2227.20
57030;DHT22;42920;45.306;20.448;2022-12-13T04:28:48;51.70;2227.20
57030;DHT22;42920;45.306;20.448;2022-12-13T04:31:14;51.70;2227.20
57030;DHT22;42920;45.306;20.448;2022-12-13T04:33:39;51.70;2227.20
57030;DHT22;42920;45.306;20.448;2022-12-13T04:36:05;51.60;2227.20
57030;DHT22;42920;45.306;20.448;2022-12-13T04:38:31;51.50;2227.20
57030;DHT22;42920;45.306;20.448;2022-12-13T04:41:12;51.50;2227.20
57030;DHT22;42920;45.306;20.448;2022-12-13T04:43:38;51.50;2227.20
57030;DHT22;42920;45.306;20.448;2022-12-13T04:46:04;51.40;2227.20
57030;DHT22;42920;45.306;20.448;2022-12-13T04:48:30;51.30;2227.20
57030;DHT22;42920;45.306;20.448;2022-12-13T04:50:57;51.30;2227.20
57030;DHT22;42920;45.306;20.448;2022-12-13T04:53:23;51.30;2227.20
57030;DHT22;42920;45.306;20.448;2022-12-13T04:55:49;51.20;2227.20
57030;DHT22;42920;45.306;20.448;2022-12-13T04:58:14;51.20;2227.20
57030;DHT22;42920;45.306;20.448;2022-12-13T05:00:40;26.30;2201.60
57030;DHT22;42920;45.306;20.448;2022-12-13T05:03:06;26.20;2201.60
57030;DHT22;42920;45.306;20.448;2022-12-13T05:05:31;26.20;2201.60
57030;DHT22;42920;45.306;20.448;2022-12-13T05:07:57;26.20;2201.60
57030;DHT22;42920;45.306;20.448;2022-12-13T05:10:23;26.30;2201.60
57030;DHT22;42920;45.306;20.448;2022-12-13T05:12:48;26.40;2201.60
57030;DHT22;42920;45.306;20.448;2022-12-13T05:15:14;26.40;2201.60
57030;DHT22;42920;45.306;20.448;2022-12-13T05:17:40;26.50;2201.60
57030;DHT22;42920;45.306;20.448;2022-12-13T05:20:05;26.40;2201.60
57030;DHT22;42920;45.306;20.448;2022-12-13T05:22:31;26.30;2201.60
57030;DHT22;42920;45.306;20.448;2022-12-13T05:24:57;26.40;2201.60
57030;DHT22;42920;45.306;20.448;2022-12-13T05:27:22;26.30;2201.60
57030;DHT22;42920;45.306;20.448;2022-12-13T05:29:48;26.40;2201.60
57030;DHT22;42920;45.306;20.448;2022-12-13T05:32:13;26.40;2201.60
57030;DHT22;42920;45.306;20.448;2022-12-13T05:34:39;26.40;2201.60
57030;DHT22;42920;45.306;20.448;2022-12-13T05:37:05;26.50;2201.60
57030;DHT22;42920;45.306;20.448;2022-12-13T05:39:30;26.40;2201.60
57030;DHT22;42920;45.306;20.448;2022-12-13T05:41:57;26.40;2201.60
57030;DHT22;42920;45.306;20.448;2022-12-13T05:44:24;26.40;2201.60
57030;DHT22;42920;45.306;20.448;2022-12-13T05:46:49;26.30;2201.60
57030;DHT22;42920;45.306;20.448;2022-12-13T05:49:15;26.50;2201.60
57030;DHT22;42920;45.306;20.448;2022-12-13T05:51:40;26.30;2201.60
57030;DHT22;42920;45.306;20.448;2022-12-13T05:54:06;26.20;2201.60
57030;DHT22;42920;45.306;20.448;2022-12-13T05:56:32;26.00;2201.60
57030;DHT22;42920;45.306;20.448;2022-12-13T05:58:57;26.00;2201.60
57030;DHT22;42920;45.306;20.448;2022-12-13T06:01:23;25.90;2201.60
57030;DHT22;42920;45.306;20.448;2022-12-13T06:03:48;26.00;2201.60
57030;DHT22;42920;45.306;20.448;2022-12-13T06:06:14;25.90;2201.60
57030;DHT22;42920;45.306;20.448;2022-12-13T06:08:42;26.00;2201.60
57030;DHT22;42920;45.306;20.448;2022-12-13T06:11:08;26.00;2201.60
57030;DHT22;42920;45.306;20.448;2022-12-13T06:13:34;26.00;2201.60
57030;DHT22;42920;45.306;20.448;2022-12-13T06:16:00;25.70;2201.60
57030;DHT22;42920;45.306;20.448;2022-12-13T06:18:26;25.80;2201.60
57030;DHT22;42920;45.306;20.448;2022-12-13T06:20:59;25.60;2201.60
57030;DHT22;42920;45.306;20.448;2022-12-13T06:23:25;25.60;2201.60
57030;DHT22;42920;45.306;20.448;2022-12-13T06:25:51;25.60;2201.60
57030;DHT22;42920;45.306;20.448;2022-12-13T06:28:16;25.70;2201.60
57030;DHT22;42920;45.306;20.448;2022-12-13T06:30:42;25.70;2201.60
57030;DHT22;42920;45.306;20.448;2022-12-13T06:33:08;25.80;2201.60
57030;DHT22;42920;45.306;20.448;2022-12-13T06:35:35;25.80;2201.60
57030;DHT22;42920;45.306;20.448;2022-12-13T06:38:00;25.80;2201.60
57030;DHT22;42920;45.306;20.448;2022-12-13T06:40:26;25.80;2201.60
57030;DHT22;42920;45.306;20.448;2022-12-13T06:42:52;25.80;2201.60
57030;DHT22;42920;45.306;20.448;2022-12-13T06:45:17;25.80;2201.60
57030;DHT22;42920;45.306;20.448;2022-12-13T06:47:43;25.80;2201.60
57030;DHT22;42920;45.306;20.448;2022-12-13T06:50:09;25.70;2201.60
57030;DHT22;42920;45.306;20.448;2022-12-13T06:52:34;0.90;2201.60
57030;DHT22;42920;45.306;20.448;2022-12-13T06:55:01;0.60;2201.60
57030;DHT22;42920;45.306;20.448;2022-12-13T06:57:27;0.50;2201.60
57030;DHT22;42920;45.306;20.448;2022-12-13T06:59:52;0.20;2201.60
57030;DHT22;42920;45.306;20.448;2022-12-13T07:02:18;0.20;2201.60
57030;DHT22;42920;45.306;20.448;2022-12-13T07:04:43;0.30;2201.60
57030;DHT22;42920;45.306;20.448;2022-12-13T07:07:09;0.50;2201.60
57030;DHT22;42920;45.306;20.448;2022-12-13T07:09:35;0.70;2201.60
57030;DHT22;42920;45.306;20.448;2022-12-13T07:12:01;0.80;2201.60
57030;DHT22;42920;45.306;20.448;2022-12-13T07:14:26;0.90;2201.60
57030;DHT22;42920;45.306;20.448;2022-12-13T07:16:52;25.70;2201.60
57030;DHT22;42920;45.306;20.448;2022-12-13T07:19:18;25.60;2201.60
57030;DHT22;42920;45.306;20.448;2022-12-13T07:21:43;25.70;2201.60
57030;DHT22;42920;45.306;20.448;2022-12-13T07:24:09;26.00;2201.60
57030;DHT22;42920;45.306;20.448;2022-12-13T07:26:35;26.20;2201.60
57030;DHT22;42920;45.306;20.448;2022-12-13T07:29:01;26.30;2201.60
57030;DHT22;42920;45.306;20.448;2022-12-13T07:31:27;26.40;2201.60
57030;DHT22;42920;45.306;20.448;2022-12-13T07:33:53;26.00;2201.60
57030;DHT22;42920;45.306;20.448;2022-12-13T07:36:20;26.00;2201.60
57030;DHT22;42920;45.306;20.448;2022-12-13T07:38:54;26.20;2201.60
57030;DHT22;42920;45.306;20.448;2022-12-13T07:41:20;26.40;2201.60
57030;DHT22;42920;45.306;20.448;2022-12-13T07:43:46;26.50;2201.60
57030;DHT22;42920;45.306;20.448;2022-12-13T07:46:12;51.20;2227.20
57030;DHT22;42920;45.306;20.448;2022-12-13T07:48:37;51.20;2227.20
57030;DHT22;42920;45.306;20.448;2022-12-13T07:51:04;51.40;2227.20
57030;DHT22;42920;45.306;20.448;2022-12-13T07:53:32;51.50;2227.20
57030;DHT22;42920;45.306;20.448;2022-12-13T07:56:01;51.50;2227.20
57030;DHT22;42920;45.306;20.448;2022-12-13T07:58:28;51.40;2227.20
57030;DHT22;42920;45.306;20.448;2022-12-13T08:01:06;51.50;2227.20
57030;DHT22;42920;45.306;20.448;2022-12-13T08:03:33;51.60;2227.20
57030;DHT22;42920;45.306;20.448;2022-12-13T08:06:07;51.80;2227.20
57030;DHT22;42920;45.306;20.448;2022-12-13T08:08:33;51.60;2227.20
57030;DHT22;42920;45.306;20.448;2022-12-13T08:11:01;51.60;2227.20
57030;DHT22;42920;45.306;20.448;2022-12-13T08:13:27;51.60;2227.20
57030;DHT22;42920;45.306;20.448;2022-12-13T08:16:00;51.80;2227.20
57030;DHT22;42920;45.306;20.448;2022-12-13T08:18:27;51.80;2227.20
57030;DHT22;42920;45.306;20.448;2022-12-13T08:21:00;51.80;2227.20
57030;DHT22;42920;45.306;20.448;2022-12-13T08:23:26;51.90;2227.20
57030;DHT22;42920;45.306;20.448;2022-12-13T08:25:53;51.70;2227.20
57030;DHT22;42920;45.306;20.448;2022-12-13T08:28:19;51.80;2227.20
57030;DHT22;42920;45.306;20.448;2022-12-13T08:30:45;51.80;2227.20
57030;DHT22;42920;45.306;20.448;2022-12-13T08:33:11;51.70;2227.20
57030;DHT22;42920;45.306;20.448;2022-12-13T08:35:37;51.60;2227.20
57030;DHT22;42920;45.306;20.448;2022-12-13T08:38:02;51.50;2227.20
57030;DHT22;42920;45.306;20.448;2022-12-13T08:40:28;51.40;2227.20
57030;DHT22;42920;45.306;20.448;2022-12-13T08:42:54;51.60;2227.20
57030;DHT22;42920;45.306;20.448;2022-12-13T08:45:20;51.80;2227.20
57030;DHT22;42920;45.306;20.448;2022-12-13T08:47:48;51.80;2227.20
57030;DHT22;42920;45.306;20.448;2022-12-13T08:50:14;51.60;2227.20
57030;DHT22;42920;45.306;20.448;2022-12-13T08:52:40;51.70;2227.20
57030;DHT22;42920;45.306;20.448;2022-12-13T08:55:27;51.80;2227.20
57030;DHT22;42920;45.306;20.448;2022-12-13T08:57:53;51.80;2227.20
57030;DHT22;42920;45.306;20.448;2022-12-13T09:00:18;51.80;2227.20
57030;DHT22;42920;45.306;20.448;2022-12-13T09:02:44;52.00;2227.20
57030;DHT22;42920;45.306;20.448;2022-12-13T09:05:10;52.10;2227.20
57030;DHT22;42920;45.306;20.448;2022-12-13T09:07:37;76.90;2227.20
57030;DHT22;42920;45.306;20.448;2022-12-13T09:10:09;76.90;2227.20
57030;DHT22;42920;45.306;20.448;2022-12-13T09:12:35;76.80;2227.20
57030;DHT22;42920;45.306;20.448;2022-12-13T09:15:02;76.80;2227.20
57030;DHT22;42920;45.306;20.448;2022-12-13T09:17:30;76.90;2227.20
57030;DHT22;42920;45.306;20.448;2022-12-13T09:19:57;77.00;2227.20
57030;DHT22;42920;45.306;20.448;2022-12-13T09:22:22;77.10;2227.20
57030;DHT22;42920;45.306;20.448;2022-12-13T09:24:48;77.30;2227.20
57030;DHT22;42920;45.306;20.448;2022-12-13T09:27:14;77.40;2227.20
57030;DHT22;42920;45.306;20.448;2022-12-13T09:29:39;77.40;2227.20
57030;DHT22;42920;45.306;20.448;2022-12-13T09:32:05;77.60;2227.20
57030;DHT22;42920;45.306;20.448;2022-12-13T09:34:31;102.40;2227.20
57030;DHT22;42920;45.306;20.448;2022-12-13T09:37:00;102.40;2227.20
57030;DHT22;42920;45.306;20.448;2022-12-13T09:39:25;102.50;2227.20
57030;DHT22;42920;45.306;20.448;2022-12-13T09:41:56;102.60;2227.20
57030;DHT22;42920;45.306;20.448;2022-12-13T09:44:26;102.40;2227.20
57030;DHT22;42920;45.306;20.448;2022-12-13T09:46:53;102.40;2227.20
57030;DHT22;42920;45.306;20.448;2022-12-13T09:51:51;102.90;2227.20
57030;DHT22;42920;45.306;20.448;2022-12-13T09:54:19;103.30;2227.20
57030;DHT22;42920;45.306;20.448;2022-12-13T09:56:47;103.10;2227.20
57030;DHT22;42920;45.306;20.448;2022-12-13T09:59:17;103.30;2227.20
57030;DHT22;42920;45.306;20.448;2022-12-13T10:01:44;128.20;2252.80
57030;DHT22;42920;45.306;20.448;2022-12-13T10:04:13;128.60;2252.80
57030;DHT22;42920;45.306;20.448;2022-12-13T10:06:41;128.60;2252.80
57030;DHT22;42920;45.306;20.448;2022-12-13T10:09:08;128.70;2252.80
57030;DHT22;42920;45.306;20.448;2022-12-13T10:11:35;128.60;2252.80
57030;DHT22;42920;45.306;20.448;2022-12-13T10:14:11;128.70;2252.80
57030;DHT22;42920;45.306;20.448;2022-12-13T10:16:47;128.90;2252.80
57030;DHT22;42920;45.306;20.448;2022-12-13T10:19:16;154.00;2252.80
57030;DHT22;42920;45.306;20.448;2022-12-13T10:21:43;154.00;2201.60
57030;DHT22;42920;45.306;20.448;2022-12-13T10:26:38;153.90;2150.40
57030;DHT22;42920;45.306;20.448;2022-12-13T10:29:04;154.00;2150.40
57030;DHT22;42920;45.306;20.448;2022-12-13T10:31:47;154.20;2124.80
57030;DHT22;42920;45.306;20.448;2022-12-13T10:34:26;179.40;2073.60
57030;DHT22;42920;45.306;20.448;2022-12-13T10:36:53;179.20;1971.20
57030;DHT22;42920;45.306;20.448;2022-12-13T10:39:38;179.50;1996.80
57030;DHT22;42920;45.306;20.448;2022-12-13T10:45:13;180.00;1894.40
57030;DHT22;42920;45.306;20.448;2022-12-13T10:47:42;179.80;1894.40
57030;DHT22;42920;45.306;20.448;2022-12-13T10:50:26;179.60;1894.40
57030;DHT22;42920;45.306;20.448;2022-12-13T10:52:53;179.30;1945.60
57030;DHT22;42920;45.306;20.448;2022-12-13T10:55:30;154.50;1894.40
57030;DHT22;42920;45.306;20.448;2022-12-13T10:58:06;179.20;1920.00
57030;DHT22;42920;45.306;20.448;2022-12-13T11:00:43;154.50;1945.60
57030;DHT22;42920;45.306;20.448;2022-12-13T11:03:26;179.20;1945.60
57030;DHT22;42920;45.306;20.448;2022-12-13T11:06:02;179.40;1945.60
57030;DHT22;42920;45.306;20.448;2022-12-13T11:08:30;179.30;1996.80
57030;DHT22;42920;45.306;20.448;2022-12-13T11:10:59;154.50;2022.40
57030;DHT22;42920;45.306;20.448;2022-12-13T11:13:39;154.50;1996.80
57030;DHT22;42920;45.306;20.448;2022-12-13T11:16:38;179.20;2099.20
57030;DHT22;42920;45.306;20.448;2022-12-13T11:19:17;179.40;2073.60
57030;DHT22;42920;45.306;20.448;2022-12-13T11:21:47;179.20;2048.00
57030;DHT22;42920;45.306;20.448;2022-12-13T11:24:35;154.50;2048.00
57030;DHT22;42920;45.306;20.448;2022-12-13T11:41:04;153.70;2176.00
57030;DHT22;42920;45.306;20.448;2022-12-13T11:43:48;128.50;2252.80
57030;DHT22;42920;45.306;20.448;2022-12-13T11:46:25;128.40;2252.80
57030;DHT22;42920;45.306;20.448;2022-12-13T11:48:57;128.20;2252.80
57030;DHT22;42920;45.306;20.448;2022-12-13T11:51:34;128.70;2252.80
57030;DHT22;42920;45.306;20.448;2022-12-13T11:54:11;128.60;2252.80
57030;DHT22;42920;45.306;20.448;2022-12-13T11:56:41;128.60;2252.80
57030;DHT22;42920;45.306;20.448;2022-12-13T11:59:43;128.70;2252.80
57030;DHT22;42920;45.306;20.448;2022-12-13T12:02:11;128.60;2252.80
57030;DHT22;42920;45.306;20.448;2022-12-13T12:04:51;128.30;2252.80
57030;DHT22;42920;45.306;20.448;2022-12-13T12:07:28;128.20;2252.80
57030;DHT22;42920;45.306;20.448;2022-12-13T12:10:03;128.20;2252.80
57030;DHT22;42920;45.306;20.448;2022-12-13T12:12:32;103.20;2227.20
57030;DHT22;42920;45.306;20.448;2022-12-13T12:15:32;103.00;2227.20
57030;DHT22;42920;45.306;20.448;2022-12-13T12:17:51;103.00;2227.20
57030;DHT22;42920;45.306;20.448;2022-12-13T12:20:18;102.90;2227.20
57030;DHT22;42920;45.306;20.448;2022-12-13T12:31:10;102.80;2227.20
57030;DHT22;42920;45.306;20.448;2022-12-13T12:53:05;102.90;2227.20
57030;DHT22;42920;45.306;20.448;2022-12-13T13:03:41;102.60;2227.20
57030;DHT22;42920;45.306;20.448;2022-12-13T13:06:18;102.70;2227.20
57030;DHT22;42920;45.306;20.448;2022-12-13T13:11:19;102.80;2227.20
57030;DHT22;42920;45.306;20.448;2022-12-13T13:13:46;102.90;2227.20
57030;DHT22;42920;45.306;20.448;2022-12-13T13:18:56;102.80;2227.20
57030;DHT22;42920;45.306;20.448;2022-12-13T13:26:32;102.80;2227.20
57030;DHT22;42920;45.306;20.448;2022-12-13T13:29:32;102.80;2227.20
57030;DHT22;42920;45.306;20.448;2022-12-13T13:54:26;102.50;2227.20
57030;DHT22;42920;45.306;20.448;2022-12-13T14:11:08;102.60;2227.20
57030;DHT22;42920;45.306;20.448;2022-12-13T14:22:20;102.40;2227.20
57030;DHT22;42920;45.306;20.448;2022-12-13T14:29:59;77.70;2227.20
57030;DHT22;42920;45.306;20.448;2022-12-13T14:32:26;77.70;2227.20
57030;DHT22;42920;45.306;20.448;2022-12-13T14:34:53;77.70;2227.20
57030;DHT22;42920;45.306;20.448;2022-12-13T14:39:52;102.50;2227.20
57030;DHT22;42920;45.306;20.448;2022-12-13T14:42:27;102.60;2227.20
57030;DHT22;42920;45.306;20.448;2022-12-13T14:47:40;102.60;2227.20
57030;DHT22;42920;45.306;20.448;2022-12-13T14:50:06;102.70;2227.20
57030;DHT22;42920;45.306;20.448;2022-12-13T14:52:37;102.60;2227.20
57030;DHT22;42920;45.306;20.448;2022-12-13T14:55:05;102.50;2227.20
57030;DHT22;42920;45.306;20.448;2022-12-13T14:57:33;102.50;2227.20
57030;DHT22;42920;45.306;20.448;2022-12-13T15:00:18;77.70;2227.20
57030;DHT22;42920;45.306;20.448;2022-12-13T15:02:50;77.70;2227.20
57030;DHT22;42920;45.306;20.448;2022-12-13T15:05:24;77.70;2227.20
57030;DHT22;42920;45.306;20.448;2022-12-13T15:07:50;77.70;2227.20
57030;DHT22;42920;45.306;20.448;2022-12-13T15:12:50;77.70;2227.20
57030;DHT22;42920;45.306;20.448;2022-12-13T15:15:21;77.70;2227.20
57030;DHT22;42920;45.306;20.448;2022-12-13T15:18:14;102.40;2227.20
57030;DHT22;42920;45.306;20.448;2022-12-13T15:20:41;102.40;2227.20
57030;DHT22;42920;45.306;20.448;2022-12-13T15:23:26;102.50;2227.20
57030;DHT22;42920;45.306;20.448;2022-12-13T15:26:17;102.60;2227.20
57030;DHT22;42920;45.306;20.448;2022-12-13T15:28:46;102.70;2227.20
57030;DHT22;42920;45.306;20.448;2022-12-13T15:31:14;102.50;2227.20
57030;DHT22;42920;45.306;20.448;2022-12-13T15:33:40;77.70;2227.20
57030;DHT22;42920;45.306;20.448;2022-12-13T15:36:24;77.70;2227.20
57030;DHT22;42920;45.306;20.448;2022-12-13T15:41:25;102.50;2227.20
57030;DHT22;42920;45.306;20.448;2022-12-13T15:43:55;77.70;2227.20
57030;DHT22;42920;45.306;20.448;2022-12-13T15:46:33;102.40;2227.20
57030;DHT22;42920;45.306;20.448;2022-12-13T15:49:04;77.70;2227.20
57030;DHT22;42920;45.306;20.448;2022-12-13T15:51:31;77.70;2227.20
57030;DHT22;42920;45.306;20.448;2022-12-13T15:56:35;77.70;2227.20
57030;DHT22;42920;45.306;20.448;2022-12-13T15:59:02;77.70;2227.20
57030;DHT22;42920;45.306;20.448;2022-12-13T16:01:35;77.50;2227.20
57030;DHT22;42920;45.306;20.448;2022-12-13T16:04:03;77.50;2227.20
57030;DHT22;42920;45.306;20.448;2022-12-13T16:06:31;77.50;2227.20
57030;DHT22;42920;45.306;20.448;2022-12-13T16:09:01;77.60;2227.20
57030;DHT22;42920;45.306;20.448;2022-12-13T16:11:41;77.40;2227.20
57030;DHT22;42920;45.306;20.448;2022-12-13T16:17:01;77.70;2227.20
57030;DHT22;42920;45.306;20.448;2022-12-13T16:19:28;77.70;2227.20
57030;DHT22;42920;45.306;20.448;2022-12-13T16:21:54;77.70;2227.20
57030;DHT22;42920;45.306;20.448;2022-12-13T16:24:19;77.60;2227.20
57030;DHT22;42920;45.306;20.448;2022-12-13T16:26:45;77.50;2227.20
57030;DHT22;42920;45.306;20.448;2022-12-13T16:29:14;77.50;2227.20
57030;DHT22;42920;45.306;20.448;2022-12-13T16:31:46;77.40;2227.20
57030;DHT22;42920;45.306;20.448;2022-12-13T16:34:12;77.30;2227.20
57030;DHT22;42920;45.306;20.448;2022-12-13T16:36:38;77.50;2227.20
57030;DHT22;42920;45.306;20.448;2022-12-13T16:39:04;77.30;2227.20
57030;DHT22;42920;45.306;20.448;2022-12-13T16:41:34;77.30;2227.20
57030;DHT22;42920;45.306;20.448;2022-12-13T16:44:01;77.30;2227.20
57030;DHT22;42920;45.306;20.448;2022-12-13T16:46:28;77.30;2227.20
57030;DHT22;42920;45.306;20.448;2022-12-13T16:48:54;77.40;2227.20
57030;DHT22;42920;45.306;20.448;2022-12-13T16:51:20;77.40;2227.20
57030;DHT22;42920;45.306;20.448;2022-12-13T16:53:46;77.50;2227.20
57030;DHT22;42920;45.306;20.448;2022-12-13T16:56:12;77.50;2227.20
57030;DHT22;42920;45.306;20.448;2022-12-13T16:58:46;77.50;2227.20
57030;DHT22;42920;45.306;20.448;2022-12-13T17:01:14;77.50;2227.20
57030;DHT22;42920;45.306;20.448;2022-12-13T17:03:41;77.60;2227.20
57030;DHT22;42920;45.306;20.448;2022-12-13T17:06:07;77.40;2227.20
57030;DHT22;42920;45.306;20.448;2022-12-13T17:08:34;77.40;2227.20
57030;DHT22;42920;45.306;20.448;2022-12-13T17:11:00;77.40;2227.20
57030;DHT22;42920;45.306;20.448;2022-12-13T17:13:26;77.40;2227.20
57030;DHT22;42920;45.306;20.448;2022-12-13T17:15:53;77.40;2227.20
57030;DHT22;42920;45.306;20.448;2022-12-13T17:18:18;77.40;2227.20
57030;DHT22;42920;45.306;20.448;2022-12-13T17:20:45;77.40;2227.20
57030;DHT22;42920;45.306;20.448;2022-12-13T17:23:11;77.60;2227.20
57030;DHT22;42920;45.306;20.448;2022-12-13T17:25:38;77.60;2227.20
57030;DHT22;42920;45.306;20.448;2022-12-13T17:28:05;77.40;2227.20
57030;DHT22;42920;45.306;20.448;2022-12-13T17:30:31;77.50;2227.20
57030;DHT22;42920;45.306;20.448;2022-12-13T17:33:01;77.50;2227.20
57030;DHT22;42920;45.306;20.448;2022-12-13T17:35:27;77.40;2227.20
57030;DHT22;42920;45.306;20.448;2022-12-13T17:37:53;77.40;2227.20